sensor_id;sensor_type;location;lat;lon;timestamp;temperature;humidity
7411;DHT22;3747;48.628;9.058;2024-01-30T00:00:01;2.90;99.90
7411;DHT22;3747;48.628;9.058;2024-01-30T00:02:30;2.90;99.90
7411;DHT22;3747;48.628;9.058;2024-01-30T00:04:57;2.90;99.90
7411;DHT22;3747;48.628;9.058;2024-01-30T00:07:23;2.70;99.90
7411;DHT22;3747;48.628;9.058;2024-01-30T00:09:50;2.60;99.90
7411;DHT22;3747;48.628;9.058;2024-01-30T00:12:17;2.50;99.90
7411;DHT22;3747;48.628;9.058;2024-01-30T00:14:43;2.40;99.90
7411;DHT22;3747;48.628;9.058;2024-01-30T00:17:10;2.60;99.90
7411;DHT22;3747;48.628;9.058;2024-01-30T00:19:38;2.80;99.90
7411;DHT22;3747;48.628;9.058;2024-01-30T00:22:04;2.80;99.90
7411;DHT22;3747;48.628;9.058;2024-01-30T00:24:31;2.90;99.90
7411;DHT22;3747;48.628;9.058;2024-01-30T00:26:58;2.90;99.90
7411;DHT22;3747;48.628;9.058;2024-01-30T00:29:24;2.90;99.90
7411;DHT22;3747;48.628;9.058;2024-01-30T00:31:55;2.90;99.90
7411;DHT22;3747;48.628;9.058;2024-01-30T00:34:22;2.80;99.90
7411;DHT22;3747;48.628;9.058;2024-01-30T00:36:50;2.70;99.90
7411;DHT22;3747;48.628;9.058;2024-01-30T00:39:17;2.80;99.90
7411;DHT22;3747;48.628;9.058;2024-01-30T00:41:45;2.90;99.90
7411;DHT22;3747;48.628;9.058;2024-01-30T00:44:11;3.10;99.90
7411;DHT22;3747;48.628;9.058;2024-01-30T00:46:38;3.40;99.90
7411;DHT22;3747;48.628;9.058;2024-01-30T00:49:05;3.50;99.90
7411;DHT22;3747;48.628;9.058;2024-01-30T00:51:31;3.70;99.90
7411;DHT22;3747;48.628;9.058;2024-01-30T00:53:59;3.90;99.90
7411;DHT22;3747;48.628;9.058;2024-01-30T00:56:26;4.10;99.90
7411;DHT22;3747;48.628;9.058;2024-01-30T00:58:53;4.10;99.90
7411;DHT22;3747;48.628;9.058;2024-01-30T01:01:19;4.30;99.90
7411;DHT22;3747;48.628;9.058;2024-01-30T01:03:46;4.60;99.90
7411;DHT22;3747;48.628;9.058;2024-01-30T01:06:13;4.70;99.90
7411;DHT22;3747;48.628;9.058;2024-01-30T01:08:40;4.70;99.90
7411;DHT22;3747;48.628;9.058;2024-01-30T01:11:08;4.80;99.90
7411;DHT22;3747;48.628;9.058;2024-01-30T01:13:35;4.90;99.90
7411;DHT22;3747;48.628;9.058;2024-01-30T01:16:02;5.00;99.90
7411;DHT22;3747;48.628;9.058;2024-01-30T01:18:29;4.90;99.90
7411;DHT22;3747;48.628;9.058;2024-01-30T01:20:55;4.60;99.90
7411;DHT22;3747;48.628;9.058;2024-01-30T01:23:22;4.40;99.90
7411;DHT22;3747;48.628;9.058;2024-01-30T01:25:49;4.10;99.90
7411;DHT22;3747;48.628;9.058;2024-01-30T01:28:17;3.80;99.90
7411;DHT22;3747;48.628;9.058;2024-01-30T01:30:44;3.60;99.90
7411;DHT22;3747;48.628;9.058;2024-01-30T01:33:10;3.40;99.90
7411;DHT22;3747;48.628;9.058;2024-01-30T01:35:39;3.20;99.90
7411;DHT22;3747;48.628;9.058;2024-01-30T01:38:06;3.00;99.90
7411;DHT22;3747;48.628;9.058;2024-01-30T01:40:32;2.90;99.90
7411;DHT22;3747;48.628;9.058;2024-01-30T01:43:03;2.70;99.90
7411;DHT22;3747;48.628;9.058;2024-01-30T01:45:31;2.70;99.90
7411;DHT22;3747;48.628;9.058;2024-01-30T01:47:58;2.50;99.90
7411;DHT22;3747;48.628;9.058;2024-01-30T01:50:25;2.40;99.90
7411;DHT22;3747;48.628;9.058;2024-01-30T01:52:52;2.30;99.90
7411;DHT22;3747;48.628;9.058;2024-01-30T01:55:21;2.20;99.90
7411;DHT22;3747;48.628;9.058;2024-01-30T01:57:49;2.20;99.90
7411;DHT22;3747;48.628;9.058;2024-01-30T02:00:16;2.20;99.90
7411;DHT22;3747;48.628;9.058;2024-01-30T02:02:46;2.20;99.90
7411;DHT22;3747;48.628;9.058;2024-01-30T02:05:13;2.40;99.90
7411;DHT22;3747;48.628;9.058;2024-01-30T02:07:41;2.50;99.90
7411;DHT22;3747;48.628;9.058;2024-01-30T02:10:08;2.60;99.90
7411;DHT22;3747;48.628;9.058;2024-01-30T02:12:35;2.70;99.90
7411;DHT22;3747;48.628;9.058;2024-01-30T02:15:02;2.70;99.90
7411;DHT22;3747;48.628;9.058;2024-01-30T02:17:30;2.70;99.90
7411;DHT22;3747;48.628;9.058;2024-01-30T02:19:58;2.60;99.90
7411;DHT22;3747;48.628;9.058;2024-01-30T02:22:27;2.50;99.90
7411;DHT22;3747;48.628;9.058;2024-01-30T02:24:54;2.60;99.90
7411;DHT22;3747;48.628;9.058;2024-01-30T02:27:20;2.60;99.90
7411;DHT22;3747;48.628;9.058;2024-01-30T02:29:47;2.70;99.90
7411;DHT22;3747;48.628;9.058;2024-01-30T02:32:14;2.60;99.90
7411;DHT22;3747;48.628;9.058;2024-01-30T02:34:40;2.50;99.90
7411;DHT22;3747;48.628;9.058;2024-01-30T02:37:07;2.30;99.90
7411;DHT22;3747;48.628;9.058;2024-01-30T02:39:35;2.20;99.90
7411;DHT22;3747;48.628;9.058;2024-01-30T02:42:02;2.10;99.90
7411;DHT22;3747;48.628;9.058;2024-01-30T02:44:28;2.00;99.90
7411;DHT22;3747;48.628;9.058;2024-01-30T02:46:55;1.90;99.90
7411;DHT22;3747;48.628;9.058;2024-01-30T02:49:22;1.80;99.90
7411;DHT22;3747;48.628;9.058;2024-01-30T02:51:49;1.80;99.90
7411;DHT22;3747;48.628;9.058;2024-01-30T02:54:16;1.80;99.90
7411;DHT22;3747;48.628;9.058;2024-01-30T02:56:44;1.90;99.90
7411;DHT22;3747;48.628;9.058;2024-01-30T02:59:10;1.90;99.90
7411;DHT22;3747;48.628;9.058;2024-01-30T03:01:42;1.80;99.90
7411;DHT22;3747;48.628;9.058;2024-01-30T03:04:09;1.80;99.90
7411;DHT22;3747;48.628;9.058;2024-01-30T03:06:36;1.70;99.90
7411;DHT22;3747;48.628;9.058;2024-01-30T03:09:03;1.60;99.90
7411;DHT22;3747;48.628;9.058;2024-01-30T03:11:30;1.40;99.90
7411;DHT22;3747;48.628;9.058;2024-01-30T03:13:58;1.30;99.90
7411;DHT22;3747;48.628;9.058;2024-01-30T03:16:25;1.20;99.90
7411;DHT22;3747;48.628;9.058;2024-01-30T03:18:51;1.20;99.90
7411;DHT22;3747;48.628;9.058;2024-01-30T03:21:18;1.30;99.90
7411;DHT22;3747;48.628;9.058;2024-01-30T03:23:45;1.50;99.90
7411;DHT22;3747;48.628;9.058;2024-01-30T03:26:11;1.60;99.90
7411;DHT22;3747;48.628;9.058;2024-01-30T03:28:40;1.60;99.90
7411;DHT22;3747;48.628;9.058;2024-01-30T03:31:08;1.60;99.90
7411;DHT22;3747;48.628;9.058;2024-01-30T03:33:36;1.60;99.90
7411;DHT22;3747;48.628;9.058;2024-01-30T03:36:05;1.60;99.90
7411;DHT22;3747;48.628;9.058;2024-01-30T03:38:31;1.40;99.90
7411;DHT22;3747;48.628;9.058;2024-01-30T03:40:59;1.90;99.90
7411;DHT22;3747;48.628;9.058;2024-01-30T03:43:25;2.50;99.90
7411;DHT22;3747;48.628;9.058;2024-01-30T03:45:52;2.90;99.90
7411;DHT22;3747;48.628;9.058;2024-01-30T03:48:21;3.00;99.90
7411;DHT22;3747;48.628;9.058;2024-01-30T03:50:48;2.90;99.90
7411;DHT22;3747;48.628;9.058;2024-01-30T03:53:14;2.70;99.90
7411;DHT22;3747;48.628;9.058;2024-01-30T03:55:41;2.50;99.90
7411;DHT22;3747;48.628;9.058;2024-01-30T03:58:08;2.30;99.90
7411;DHT22;3747;48.628;9.058;2024-01-30T04:00:34;2.00;99.90
7411;DHT22;3747;48.628;9.058;2024-01-30T04:03:01;1.90;99.90
7411;DHT22;3747;48.628;9.058;2024-01-30T04:05:29;1.80;99.90
7411;DHT22;3747;48.628;9.058;2024-01-30T04:07:56;1.70;99.90
7411;DHT22;3747;48.628;9.058;2024-01-30T04:10:23;1.70;99.90
7411;DHT22;3747;48.628;9.058;2024-01-30T04:12:50;1.60;99.90
7411;DHT22;3747;48.628;9.058;2024-01-30T04:15:17;1.60;99.90
7411;DHT22;3747;48.628;9.058;2024-01-30T04:17:43;1.50;99.90
7411;DHT22;3747;48.628;9.058;2024-01-30T04:20:13;1.50;99.90
7411;DHT22;3747;48.628;9.058;2024-01-30T04:22:43;1.40;99.90
7411;DHT22;3747;48.628;9.058;2024-01-30T04:25:10;1.30;99.90
7411;DHT22;3747;48.628;9.058;2024-01-30T04:27:37;1.20;99.90
7411;DHT22;3747;48.628;9.058;2024-01-30T04:30:04;1.30;99.90
7411;DHT22;3747;48.628;9.058;2024-01-30T04:32:32;1.20;99.90
7411;DHT22;3747;48.628;9.058;2024-01-30T04:34:58;1.20;99.90
7411;DHT22;3747;48.628;9.058;2024-01-30T04:37:25;1.20;99.90
7411;DHT22;3747;48.628;9.058;2024-01-30T04:39:53;1.10;99.90
7411;DHT22;3747;48.628;9.058;2024-01-30T04:42:20;1.00;99.90
7411;DHT22;3747;48.628;9.058;2024-01-30T04:44:47;1.00;99.90
7411;DHT22;3747;48.628;9.058;2024-01-30T04:47:13;0.80;99.90
7411;DHT22;3747;48.628;9.058;2024-01-30T04:49:40;0.60;99.90
7411;DHT22;3747;48.628;9.058;2024-01-30T04:52:07;0.80;99.90
7411;DHT22;3747;48.628;9.058;2024-01-30T04:54:34;0.90;99.90
7411;DHT22;3747;48.628;9.058;2024-01-30T04:57:02;0.90;99.90
7411;DHT22;3747;48.628;9.058;2024-01-30T04:59:31;0.90;99.90
7411;DHT22;3747;48.628;9.058;2024-01-30T05:01:57;0.90;99.90
7411;DHT22;3747;48.628;9.058;2024-01-30T05:04:24;0.90;99.90
7411;DHT22;3747;48.628;9.058;2024-01-30T05:06:51;1.10;99.90
7411;DHT22;3747;48.628;9.058;2024-01-30T05:09:18;1.20;99.90
7411;DHT22;3747;48.628;9.058;2024-01-30T05:11:45;1.20;99.90
7411;DHT22;3747;48.628;9.058;2024-01-30T05:14:13;1.10;99.90
7411;DHT22;3747;48.628;9.058;2024-01-30T05:16:40;1.00;99.90
7411;DHT22;3747;48.628;9.058;2024-01-30T05:19:08;0.80;99.90
7411;DHT22;3747;48.628;9.058;2024-01-30T05:21:35;0.60;99.90
7411;DHT22;3747;48.628;9.058;2024-01-30T05:24:01;0.50;99.90
7411;DHT22;3747;48.628;9.058;2024-01-30T05:26:28;0.40;99.90
7411;DHT22;3747;48.628;9.058;2024-01-30T05:28:56;0.40;99.90
7411;DHT22;3747;48.628;9.058;2024-01-30T05:31:24;0.50;99.90
7411;DHT22;3747;48.628;9.058;2024-01-30T05:33:52;0.50;99.90
7411;DHT22;3747;48.628;9.058;2024-01-30T05:36:19;0.40;99.90
7411;DHT22;3747;48.628;9.058;2024-01-30T05:38:47;0.40;99.90
7411;DHT22;3747;48.628;9.058;2024-01-30T05:41:13;0.30;99.90
7411;DHT22;3747;48.628;9.058;2024-01-30T05:43:40;0.40;99.90
7411;DHT22;3747;48.628;9.058;2024-01-30T05:46:07;0.50;99.90
7411;DHT22;3747;48.628;9.058;2024-01-30T05:48:35;0.80;99.90
7411;DHT22;3747;48.628;9.058;2024-01-30T05:51:02;0.60;99.90
7411;DHT22;3747;48.628;9.058;2024-01-30T05:53:29;0.50;99.90
7411;DHT22;3747;48.628;9.058;2024-01-30T05:55:56;0.40;99.90
7411;DHT22;3747;48.628;9.058;2024-01-30T05:58:22;0.20;99.90
7411;DHT22;3747;48.628;9.058;2024-01-30T06:00:49;0.20;99.90
7411;DHT22;3747;48.628;9.058;2024-01-30T06:03:16;0.30;99.90
7411;DHT22;3747;48.628;9.058;2024-01-30T06:05:44;0.30;99.90
7411;DHT22;3747;48.628;9.058;2024-01-30T06:08:10;0.30;99.90
7411;DHT22;3747;48.628;9.058;2024-01-30T06:10:37;0.30;99.90
7411;DHT22;3747;48.628;9.058;2024-01-30T06:13:04;0.30;99.90
7411;DHT22;3747;48.628;9.058;2024-01-30T06:15:31;0.30;99.90
7411;DHT22;3747;48.628;9.058;2024-01-30T06:17:58;0.40;99.90
7411;DHT22;3747;48.628;9.058;2024-01-30T06:20:24;0.60;99.90
7411;DHT22;3747;48.628;9.058;2024-01-30T06:22:52;0.70;99.90
7411;DHT22;3747;48.628;9.058;2024-01-30T06:25:19;0.80;99.90
7411;DHT22;3747;48.628;9.058;2024-01-30T06:27:46;0.80;99.90
7411;DHT22;3747;48.628;9.058;2024-01-30T06:30:13;0.80;99.90
7411;DHT22;3747;48.628;9.058;2024-01-30T06:32:40;0.90;99.90
7411;DHT22;3747;48.628;9.058;2024-01-30T06:35:07;0.80;99.90
7411;DHT22;3747;48.628;9.058;2024-01-30T06:37:35;0.80;99.90
7411;DHT22;3747;48.628;9.058;2024-01-30T06:40:04;0.70;99.90
7411;DHT22;3747;48.628;9.058;2024-01-30T06:42:31;0.70;99.90
7411;DHT22;3747;48.628;9.058;2024-01-30T06:44:58;0.60;99.90
7411;DHT22;3747;48.628;9.058;2024-01-30T06:47:25;0.50;99.90
7411;DHT22;3747;48.628;9.058;2024-01-30T06:49:51;0.40;99.90
7411;DHT22;3747;48.628;9.058;2024-01-30T06:52:18;0.40;99.90
7411;DHT22;3747;48.628;9.058;2024-01-30T06:54:45;0.40;99.90
7411;DHT22;3747;48.628;9.058;2024-01-30T06:57:13;0.40;99.90
7411;DHT22;3747;48.628;9.058;2024-01-30T06:59:39;0.30;99.90
7411;DHT22;3747;48.628;9.058;2024-01-30T07:02:08;0.30;99.90
7411;DHT22;3747;48.628;9.058;2024-01-30T07:04:35;0.30;99.90
7411;DHT22;3747;48.628;9.058;2024-01-30T07:07:03;0.40;99.90
7411;DHT22;3747;48.628;9.058;2024-01-30T07:09:31;0.40;99.90
7411;DHT22;3747;48.628;9.058;2024-01-30T07:11:57;0.60;99.90
7411;DHT22;3747;48.628;9.058;2024-01-30T07:14:26;0.80;99.90
7411;DHT22;3747;48.628;9.058;2024-01-30T07:16:52;0.90;99.90
7411;DHT22;3747;48.628;9.058;2024-01-30T07:19:19;1.10;99.90
7411;DHT22;3747;48.628;9.058;2024-01-30T07:21:46;1.20;99.90
7411;DHT22;3747;48.628;9.058;2024-01-30T07:24:12;1.30;99.90
7411;DHT22;3747;48.628;9.058;2024-01-30T07:26:39;1.50;99.90
7411;DHT22;3747;48.628;9.058;2024-01-30T07:29:06;1.60;99.90
7411;DHT22;3747;48.628;9.058;2024-01-30T07:31:34;1.70;99.90
7411;DHT22;3747;48.628;9.058;2024-01-30T07:34:01;2.00;99.90
7411;DHT22;3747;48.628;9.058;2024-01-30T07:36:28;2.50;99.90
7411;DHT22;3747;48.628;9.058;2024-01-30T07:38:55;2.90;99.90
7411;DHT22;3747;48.628;9.058;2024-01-30T07:41:22;3.20;99.90
7411;DHT22;3747;48.628;9.058;2024-01-30T07:43:50;3.40;99.90
7411;DHT22;3747;48.628;9.058;2024-01-30T07:46:17;3.60;99.90
7411;DHT22;3747;48.628;9.058;2024-01-30T07:48:45;3.70;99.90
7411;DHT22;3747;48.628;9.058;2024-01-30T07:51:12;4.00;99.90
7411;DHT22;3747;48.628;9.058;2024-01-30T07:53:39;4.20;99.90
7411;DHT22;3747;48.628;9.058;2024-01-30T07:56:07;4.30;99.90
7411;DHT22;3747;48.628;9.058;2024-01-30T07:58:33;4.30;99.90
7411;DHT22;3747;48.628;9.058;2024-01-30T08:01:00;4.40;99.90
7411;DHT22;3747;48.628;9.058;2024-01-30T08:03:27;4.60;99.90
7411;DHT22;3747;48.628;9.058;2024-01-30T08:05:55;4.60;99.90
7411;DHT22;3747;48.628;9.058;2024-01-30T08:08:22;4.70;99.90
7411;DHT22;3747;48.628;9.058;2024-01-30T08:10:48;4.90;99.90
7411;DHT22;3747;48.628;9.058;2024-01-30T08:13:15;5.00;99.90
7411;DHT22;3747;48.628;9.058;2024-01-30T08:15:42;5.30;99.90
7411;DHT22;3747;48.628;9.058;2024-01-30T08:18:08;5.50;99.90
7411;DHT22;3747;48.628;9.058;2024-01-30T08:20:35;5.80;99.90
7411;DHT22;3747;48.628;9.058;2024-01-30T08:23:03;6.20;99.90
7411;DHT22;3747;48.628;9.058;2024-01-30T08:25:30;6.80;99.90
7411;DHT22;3747;48.628;9.058;2024-01-30T08:27:57;7.30;99.90
7411;DHT22;3747;48.628;9.058;2024-01-30T08:30:24;7.70;99.90
7411;DHT22;3747;48.628;9.058;2024-01-30T08:32:50;8.00;99.90
7411;DHT22;3747;48.628;9.058;2024-01-30T08:35:17;8.40;99.90
7411;DHT22;3747;48.628;9.058;2024-01-30T08:37:44;8.70;99.90
7411;DHT22;3747;48.628;9.058;2024-01-30T08:40:12;9.00;99.90
7411;DHT22;3747;48.628;9.058;2024-01-30T08:42:38;9.10;99.90
7411;DHT22;3747;48.628;9.058;2024-01-30T08:45:06;9.20;99.90
7411;DHT22;3747;48.628;9.058;2024-01-30T08:47:33;9.20;99.90
7411;DHT22;3747;48.628;9.058;2024-01-30T08:50:00;8.90;99.90
7411;DHT22;3747;48.628;9.058;2024-01-30T08:52:27;8.70;99.90
7411;DHT22;3747;48.628;9.058;2024-01-30T08:54:53;8.70;99.90
7411;DHT22;3747;48.628;9.058;2024-01-30T08:57:22;8.50;99.90
7411;DHT22;3747;48.628;9.058;2024-01-30T08:59:48;8.40;99.90
7411;DHT22;3747;48.628;9.058;2024-01-30T09:02:15;8.40;99.90
7411;DHT22;3747;48.628;9.058;2024-01-30T09:04:43;8.20;99.90
7411;DHT22;3747;48.628;9.058;2024-01-30T09:07:10;8.20;99.90
7411;DHT22;3747;48.628;9.058;2024-01-30T09:09:38;8.10;99.90
7411;DHT22;3747;48.628;9.058;2024-01-30T09:12:06;8.30;99.90
7411;DHT22;3747;48.628;9.058;2024-01-30T09:14:36;8.40;99.90
7411;DHT22;3747;48.628;9.058;2024-01-30T09:17:03;8.30;99.90
7411;DHT22;3747;48.628;9.058;2024-01-30T09:19:30;8.70;99.90
7411;DHT22;3747;48.628;9.058;2024-01-30T09:21:57;9.20;99.90
7411;DHT22;3747;48.628;9.058;2024-01-30T09:24:24;9.20;99.90
7411;DHT22;3747;48.628;9.058;2024-01-30T09:26:51;9.30;99.90
7411;DHT22;3747;48.628;9.058;2024-01-30T09:29:18;9.20;99.90
7411;DHT22;3747;48.628;9.058;2024-01-30T09:31:46;9.50;99.90
7411;DHT22;3747;48.628;9.058;2024-01-30T09:34:13;9.70;99.90
7411;DHT22;3747;48.628;9.058;2024-01-30T09:36:39;9.60;99.90
7411;DHT22;3747;48.628;9.058;2024-01-30T09:39:06;9.50;99.90
7411;DHT22;3747;48.628;9.058;2024-01-30T09:41:36;9.60;99.90
7411;DHT22;3747;48.628;9.058;2024-01-30T09:44:09;9.50;99.90
7411;DHT22;3747;48.628;9.058;2024-01-30T09:46:36;9.80;99.90
7411;DHT22;3747;48.628;9.058;2024-01-30T09:49:06;10.00;99.90
7411;DHT22;3747;48.628;9.058;2024-01-30T09:51:35;10.10;99.90
7411;DHT22;3747;48.628;9.058;2024-01-30T09:54:02;10.20;99.90
7411;DHT22;3747;48.628;9.058;2024-01-30T09:56:29;10.30;99.90
7411;DHT22;3747;48.628;9.058;2024-01-30T09:58:56;10.30;99.90
7411;DHT22;3747;48.628;9.058;2024-01-30T10:01:23;10.30;99.90
7411;DHT22;3747;48.628;9.058;2024-01-30T10:03:50;10.40;99.90
7411;DHT22;3747;48.628;9.058;2024-01-30T10:06:20;10.40;99.90
7411;DHT22;3747;48.628;9.058;2024-01-30T10:08:47;10.30;99.90
7411;DHT22;3747;48.628;9.058;2024-01-30T10:11:14;10.30;99.90
7411;DHT22;3747;48.628;9.058;2024-01-30T10:13:41;10.30;99.90
7411;DHT22;3747;48.628;9.058;2024-01-30T10:16:08;10.30;99.90
7411;DHT22;3747;48.628;9.058;2024-01-30T10:18:34;10.30;99.90
7411;DHT22;3747;48.628;9.058;2024-01-30T10:21:01;10.40;99.90
7411;DHT22;3747;48.628;9.058;2024-01-30T10:23:29;10.40;99.90
7411;DHT22;3747;48.628;9.058;2024-01-30T10:25:57;10.50;99.90
7411;DHT22;3747;48.628;9.058;2024-01-30T10:28:27;10.50;99.90
7411;DHT22;3747;48.628;9.058;2024-01-30T10:30:58;10.40;99.90
7411;DHT22;3747;48.628;9.058;2024-01-30T10:33:26;10.50;99.90
7411;DHT22;3747;48.628;9.058;2024-01-30T10:35:55;10.60;99.90
7411;DHT22;3747;48.628;9.058;2024-01-30T10:38:24;10.70;99.90
7411;DHT22;3747;48.628;9.058;2024-01-30T10:40:56;10.80;99.90
7411;DHT22;3747;48.628;9.058;2024-01-30T10:43:26;10.70;99.90
7411;DHT22;3747;48.628;9.058;2024-01-30T10:45:56;10.80;99.90
7411;DHT22;3747;48.628;9.058;2024-01-30T10:48:29;10.80;99.90
7411;DHT22;3747;48.628;9.058;2024-01-30T10:50:58;10.90;99.90
7411;DHT22;3747;48.628;9.058;2024-01-30T10:53:27;11.00;99.90
7411;DHT22;3747;48.628;9.058;2024-01-30T10:55:55;11.00;99.90
7411;DHT22;3747;48.628;9.058;2024-01-30T10:58:24;11.10;99.90
7411;DHT22;3747;48.628;9.058;2024-01-30T11:00:52;11.20;99.90
7411;DHT22;3747;48.628;9.058;2024-01-30T11:03:19;11.20;99.90
7411;DHT22;3747;48.628;9.058;2024-01-30T11:05:49;11.20;99.90
7411;DHT22;3747;48.628;9.058;2024-01-30T11:08:23;11.20;99.90
7411;DHT22;3747;48.628;9.058;2024-01-30T11:10:56;11.20;99.90
7411;DHT22;3747;48.628;9.058;2024-01-30T11:13:27;11.30;99.90
7411;DHT22;3747;48.628;9.058;2024-01-30T11:15:54;11.30;99.90
7411;DHT22;3747;48.628;9.058;2024-01-30T11:18:24;11.30;99.90
7411;DHT22;3747;48.628;9.058;2024-01-30T11:20:51;11.30;99.90
7411;DHT22;3747;48.628;9.058;2024-01-30T11:23:18;11.30;99.90
7411;DHT22;3747;48.628;9.058;2024-01-30T11:25:48;11.20;99.90
7411;DHT22;3747;48.628;9.058;2024-01-30T11:28:16;11.30;99.90
7411;DHT22;3747;48.628;9.058;2024-01-30T11:30:44;11.30;99.90
7411;DHT22;3747;48.628;9.058;2024-01-30T11:33:13;11.20;99.90
7411;DHT22;3747;48.628;9.058;2024-01-30T11:35:41;11.20;99.90
7411;DHT22;3747;48.628;9.058;2024-01-30T11:38:09;11.20;99.90
7411;DHT22;3747;48.628;9.058;2024-01-30T11:40:38;11.20;99.90
7411;DHT22;3747;48.628;9.058;2024-01-30T11:43:06;11.30;99.90
7411;DHT22;3747;48.628;9.058;2024-01-30T11:45:35;11.20;99.90
7411;DHT22;3747;48.628;9.058;2024-01-30T11:48:03;11.20;99.90
7411;DHT22;3747;48.628;9.058;2024-01-30T11:50:29;11.10;99.90
7411;DHT22;3747;48.628;9.058;2024-01-30T11:52:57;11.20;99.90
7411;DHT22;3747;48.628;9.058;2024-01-30T11:55:24;11.30;99.90
7411;DHT22;3747;48.628;9.058;2024-01-30T11:57:51;11.40;99.90
7411;DHT22;3747;48.628;9.058;2024-01-30T12:00:18;11.40;99.90
7411;DHT22;3747;48.628;9.058;2024-01-30T12:02:50;11.50;99.90
7411;DHT22;3747;48.628;9.058;2024-01-30T12:05:21;11.50;99.90
7411;DHT22;3747;48.628;9.058;2024-01-30T12:07:48;11.60;99.90
7411;DHT22;3747;48.628;9.058;2024-01-30T12:10:15;11.60;99.90
7411;DHT22;3747;48.628;9.058;2024-01-30T12:12:45;11.60;99.90
7411;DHT22;3747;48.628;9.058;2024-01-30T12:15:12;11.70;99.90
7411;DHT22;3747;48.628;9.058;2024-01-30T12:17:39;11.80;99.90
7411;DHT22;3747;48.628;9.058;2024-01-30T12:20:09;11.80;99.90
7411;DHT22;3747;48.628;9.058;2024-01-30T12:22:37;11.90;99.90
7411;DHT22;3747;48.628;9.058;2024-01-30T12:25:05;11.90;99.90
7411;DHT22;3747;48.628;9.058;2024-01-30T12:27:32;11.90;99.90
7411;DHT22;3747;48.628;9.058;2024-01-30T12:29:58;12.00;99.90
7411;DHT22;3747;48.628;9.058;2024-01-30T12:32:25;12.00;99.90
7411;DHT22;3747;48.628;9.058;2024-01-30T12:34:55;12.00;99.90
7411;DHT22;3747;48.628;9.058;2024-01-30T12:37:24;12.10;99.90
7411;DHT22;3747;48.628;9.058;2024-01-30T12:39:52;12.20;99.90
7411;DHT22;3747;48.628;9.058;2024-01-30T12:42:19;12.20;99.90
7411;DHT22;3747;48.628;9.058;2024-01-30T12:44:47;12.10;99.90
7411;DHT22;3747;48.628;9.058;2024-01-30T12:47:13;12.10;99.90
7411;DHT22;3747;48.628;9.058;2024-01-30T12:49:41;12.20;99.90
7411;DHT22;3747;48.628;9.058;2024-01-30T12:52:08;12.20;99.90
7411;DHT22;3747;48.628;9.058;2024-01-30T12:54:36;12.20;99.90
7411;DHT22;3747;48.628;9.058;2024-01-30T12:57:03;12.20;99.90
7411;DHT22;3747;48.628;9.058;2024-01-30T12:59:30;12.10;99.90
7411;DHT22;3747;48.628;9.058;2024-01-30T13:01:58;12.10;99.90
7411;DHT22;3747;48.628;9.058;2024-01-30T13:04:25;12.10;99.90
7411;DHT22;3747;48.628;9.058;2024-01-30T13:06:52;12.00;99.90
7411;DHT22;3747;48.628;9.058;2024-01-30T13:09:18;12.00;99.90
7411;DHT22;3747;48.628;9.058;2024-01-30T13:11:47;12.00;99.90
7411;DHT22;3747;48.628;9.058;2024-01-30T13:14:13;11.90;99.90
7411;DHT22;3747;48.628;9.058;2024-01-30T13:16:40;11.90;99.90
7411;DHT22;3747;48.628;9.058;2024-01-30T13:19:07;12.00;99.90
7411;DHT22;3747;48.628;9.058;2024-01-30T13:21:33;12.10;99.90
7411;DHT22;3747;48.628;9.058;2024-01-30T13:24:00;12.20;99.90
7411;DHT22;3747;48.628;9.058;2024-01-30T13:26:27;12.20;99.90
7411;DHT22;3747;48.628;9.058;2024-01-30T13:28:55;12.30;99.90
7411;DHT22;3747;48.628;9.058;2024-01-30T13:31:22;12.20;99.90
7411;DHT22;3747;48.628;9.058;2024-01-30T13:33:48;12.20;99.90
7411;DHT22;3747;48.628;9.058;2024-01-30T13:36:15;12.30;99.90
7411;DHT22;3747;48.628;9.058;2024-01-30T13:38:42;12.30;99.90
7411;DHT22;3747;48.628;9.058;2024-01-30T13:41:08;12.50;99.90
7411;DHT22;3747;48.628;9.058;2024-01-30T13:43:35;12.60;99.90
7411;DHT22;3747;48.628;9.058;2024-01-30T13:46:03;12.60;99.90
7411;DHT22;3747;48.628;9.058;2024-01-30T13:48:31;12.50;99.90
7411;DHT22;3747;48.628;9.058;2024-01-30T13:50:58;12.40;99.90
7411;DHT22;3747;48.628;9.058;2024-01-30T13:53:25;12.30;99.90
7411;DHT22;3747;48.628;9.058;2024-01-30T13:55:51;12.30;99.90
7411;DHT22;3747;48.628;9.058;2024-01-30T13:58:18;12.20;99.90
7411;DHT22;3747;48.628;9.058;2024-01-30T14:00:44;12.20;99.90
7411;DHT22;3747;48.628;9.058;2024-01-30T14:03:12;12.10;99.90
7411;DHT22;3747;48.628;9.058;2024-01-30T14:05:39;12.10;99.90
7411;DHT22;3747;48.628;9.058;2024-01-30T14:08:06;12.10;99.90
7411;DHT22;3747;48.628;9.058;2024-01-30T14:10:34;12.20;99.90
7411;DHT22;3747;48.628;9.058;2024-01-30T14:13:00;12.20;99.90
7411;DHT22;3747;48.628;9.058;2024-01-30T14:15:27;12.30;99.90
7411;DHT22;3747;48.628;9.058;2024-01-30T14:17:54;12.30;99.90
7411;DHT22;3747;48.628;9.058;2024-01-30T14:20:22;12.40;99.90
7411;DHT22;3747;48.628;9.058;2024-01-30T14:22:49;12.30;99.90
7411;DHT22;3747;48.628;9.058;2024-01-30T14:25:15;12.30;99.90
7411;DHT22;3747;48.628;9.058;2024-01-30T14:27:42;12.30;99.90
7411;DHT22;3747;48.628;9.058;2024-01-30T14:30:10;12.30;99.90
7411;DHT22;3747;48.628;9.058;2024-01-30T14:32:37;12.20;99.90
7411;DHT22;3747;48.628;9.058;2024-01-30T14:35:06;12.10;99.90
7411;DHT22;3747;48.628;9.058;2024-01-30T14:37:35;12.00;99.90
7411;DHT22;3747;48.628;9.058;2024-01-30T14:40:02;12.10;99.90
7411;DHT22;3747;48.628;9.058;2024-01-30T14:42:29;11.90;99.90
7411;DHT22;3747;48.628;9.058;2024-01-30T14:44:57;11.90;99.90
7411;DHT22;3747;48.628;9.058;2024-01-30T14:47:24;11.90;99.90
7411;DHT22;3747;48.628;9.058;2024-01-30T14:49:52;11.80;99.90
7411;DHT22;3747;48.628;9.058;2024-01-30T14:52:18;11.80;99.90
7411;DHT22;3747;48.628;9.058;2024-01-30T14:54:46;11.70;99.90
7411;DHT22;3747;48.628;9.058;2024-01-30T14:57:13;11.70;99.90
7411;DHT22;3747;48.628;9.058;2024-01-30T14:59:40;11.60;99.90
7411;DHT22;3747;48.628;9.058;2024-01-30T15:02:06;11.40;99.90
7411;DHT22;3747;48.628;9.058;2024-01-30T15:04:33;11.30;99.90
7411;DHT22;3747;48.628;9.058;2024-01-30T15:07:00;11.20;99.90
7411;DHT22;3747;48.628;9.058;2024-01-30T15:09:27;11.10;99.90
7411;DHT22;3747;48.628;9.058;2024-01-30T15:11:55;11.00;99.90
7411;DHT22;3747;48.628;9.058;2024-01-30T15:14:23;10.90;99.90
7411;DHT22;3747;48.628;9.058;2024-01-30T15:16:50;10.90;99.90
7411;DHT22;3747;48.628;9.058;2024-01-30T15:19:16;10.90;99.90
7411;DHT22;3747;48.628;9.058;2024-01-30T15:21:43;10.80;99.90
7411;DHT22;3747;48.628;9.058;2024-01-30T15:24:10;10.80;99.90
7411;DHT22;3747;48.628;9.058;2024-01-30T15:26:40;10.80;99.90
7411;DHT22;3747;48.628;9.058;2024-01-30T15:29:08;10.70;99.90
7411;DHT22;3747;48.628;9.058;2024-01-30T15:31:35;10.70;99.90
7411;DHT22;3747;48.628;9.058;2024-01-30T15:34:01;10.60;99.90
7411;DHT22;3747;48.628;9.058;2024-01-30T15:36:29;10.50;99.90
7411;DHT22;3747;48.628;9.058;2024-01-30T15:38:56;10.30;99.90
7411;DHT22;3747;48.628;9.058;2024-01-30T15:41:23;10.30;99.90
7411;DHT22;3747;48.628;9.058;2024-01-30T15:43:49;10.30;99.90
7411;DHT22;3747;48.628;9.058;2024-01-30T15:46:18;10.20;99.90
7411;DHT22;3747;48.628;9.058;2024-01-30T15:48:44;10.20;99.90
7411;DHT22;3747;48.628;9.058;2024-01-30T15:51:12;10.10;99.90
7411;DHT22;3747;48.628;9.058;2024-01-30T15:53:39;10.00;99.90
7411;DHT22;3747;48.628;9.058;2024-01-30T15:56:06;10.00;99.90
7411;DHT22;3747;48.628;9.058;2024-01-30T15:58:33;9.90;99.90
7411;DHT22;3747;48.628;9.058;2024-01-30T16:00:59;10.00;99.90
7411;DHT22;3747;48.628;9.058;2024-01-30T16:03:28;9.90;99.90
7411;DHT22;3747;48.628;9.058;2024-01-30T16:05:55;9.90;99.90
7411;DHT22;3747;48.628;9.058;2024-01-30T16:08:22;9.80;99.90
7411;DHT22;3747;48.628;9.058;2024-01-30T16:10:49;9.80;99.90